sensor_id;sensor_type;location;lat;lon;timestamp;P1;durP1;ratioP1;P2;durP2;ratioP2
45490;SDS011;31237;45.586;13.782;2022-07-23T00:01:57;11.80;;;7.07;;
45490;SDS011;31237;45.586;13.782;2022-07-23T00:04:23;10.40;;;7.13;;
45490;SDS011;31237;45.586;13.782;2022-07-23T00:06:49;10.85;;;6.90;;
45490;SDS011;31237;45.586;13.782;2022-07-23T00:09:14;9.48;;;6.65;;
45490;SDS011;31237;45.586;13.782;2022-07-23T00:11:40;9.18;;;6.45;;
45490;SDS011;31237;45.586;13.782;2022-07-23T00:14:06;9.50;;;6.85;;
45490;SDS011;31237;45.586;13.782;2022-07-23T00:16:31;9.85;;;6.70;;
45490;SDS011;31237;45.586;13.782;2022-07-23T00:18:57;7.95;;;6.45;;
45490;SDS011;31237;45.586;13.782;2022-07-23T00:21:26;10.30;;;7.03;;
45490;SDS011;31237;45.586;13.782;2022-07-23T00:23:52;11.68;;;7.28;;
45490;SDS011;31237;45.586;13.782;2022-07-23T00:26:17;8.52;;;6.10;;
45490;SDS011;31237;45.586;13.782;2022-07-23T00:28:43;10.30;;;7.00;;
45490;SDS011;31237;45.586;13.782;2022-07-23T00:31:09;9.25;;;6.82;;
45490;SDS011;31237;45.586;13.782;2022-07-23T00:33:34;8.27;;;6.30;;
45490;SDS011;31237;45.586;13.782;2022-07-23T00:36:00;10.25;;;6.60;;
45490;SDS011;31237;45.586;13.782;2022-07-23T00:38:26;10.25;;;7.28;;
45490;SDS011;31237;45.586;13.782;2022-07-23T00:40:51;8.77;;;6.55;;
45490;SDS011;31237;45.586;13.782;2022-07-23T00:43:19;9.85;;;6.43;;
45490;SDS011;31237;45.586;13.782;2022-07-23T00:45:46;9.30;;;6.43;;
45490;SDS011;31237;45.586;13.782;2022-07-23T00:48:12;9.27;;;6.75;;
45490;SDS011;31237;45.586;13.782;2022-07-23T00:50:38;10.68;;;6.05;;
45490;SDS011;31237;45.586;13.782;2022-07-23T00:53:04;8.55;;;5.90;;
45490;SDS011;31237;45.586;13.782;2022-07-23T00:55:30;8.95;;;6.03;;
45490;SDS011;31237;45.586;13.782;2022-07-23T00:57:57;9.93;;;6.53;;
45490;SDS011;31237;45.586;13.782;2022-07-23T01:00:24;8.77;;;5.82;;
45490;SDS011;31237;45.586;13.782;2022-07-23T01:02:52;9.40;;;6.15;;
45490;SDS011;31237;45.586;13.782;2022-07-23T01:05:17;11.25;;;7.20;;
45490;SDS011;31237;45.586;13.782;2022-07-23T01:07:47;11.10;;;6.85;;
45490;SDS011;31237;45.586;13.782;2022-07-23T01:10:14;9.25;;;6.47;;
45490;SDS011;31237;45.586;13.782;2022-07-23T01:15:29;16.40;;;7.82;;
45490;SDS011;31237;45.586;13.782;2022-07-23T01:17:56;11.00;;;7.05;;
45490;SDS011;31237;45.586;13.782;2022-07-23T01:20:22;8.40;;;6.18;;
45490;SDS011;31237;45.586;13.782;2022-07-23T01:22:48;13.38;;;7.90;;
45490;SDS011;31237;45.586;13.782;2022-07-23T01:25:14;12.82;;;7.57;;
45490;SDS011;31237;45.586;13.782;2022-07-23T01:27:39;10.80;;;7.78;;
45490;SDS011;31237;45.586;13.782;2022-07-23T01:30:06;11.48;;;7.20;;
45490;SDS011;31237;45.586;13.782;2022-07-23T01:32:32;11.00;;;6.82;;
45490;SDS011;31237;45.586;13.782;2022-07-23T01:34:57;9.15;;;6.97;;
45490;SDS011;31237;45.586;13.782;2022-07-23T01:37:23;9.65;;;6.82;;
45490;SDS011;31237;45.586;13.782;2022-07-23T01:39:49;9.77;;;6.90;;
45490;SDS011;31237;45.586;13.782;2022-07-23T01:42:14;10.25;;;6.78;;
45490;SDS011;31237;45.586;13.782;2022-07-23T01:44:40;11.20;;;7.63;;
45490;SDS011;31237;45.586;13.782;2022-07-23T01:47:06;11.23;;;7.82;;
45490;SDS011;31237;45.586;13.782;2022-07-23T01:49:31;12.10;;;8.23;;
45490;SDS011;31237;45.586;13.782;2022-07-23T01:51:57;12.05;;;7.22;;
45490;SDS011;31237;45.586;13.782;2022-07-23T01:54:30;12.82;;;7.57;;
45490;SDS011;31237;45.586;13.782;2022-07-23T01:56:57;11.63;;;6.93;;
45490;SDS011;31237;45.586;13.782;2022-07-23T01:59:24;10.80;;;7.03;;
45490;SDS011;31237;45.586;13.782;2022-07-23T02:01:50;8.88;;;6.63;;
45490;SDS011;31237;45.586;13.782;2022-07-23T02:04:17;11.32;;;7.00;;
45490;SDS011;31237;45.586;13.782;2022-07-23T02:06:43;9.52;;;7.15;;
45490;SDS011;31237;45.586;13.782;2022-07-23T02:09:09;12.77;;;7.57;;
45490;SDS011;31237;45.586;13.782;2022-07-23T02:11:35;9.88;;;7.18;;
45490;SDS011;31237;45.586;13.782;2022-07-23T02:14:01;9.55;;;7.35;;
45490;SDS011;31237;45.586;13.782;2022-07-23T02:16:27;9.88;;;7.80;;
45490;SDS011;31237;45.586;13.782;2022-07-23T02:18:53;10.98;;;8.15;;
45490;SDS011;31237;45.586;13.782;2022-07-23T02:21:18;10.13;;;7.22;;
45490;SDS011;31237;45.586;13.782;2022-07-23T02:23:44;10.45;;;7.53;;
45490;SDS011;31237;45.586;13.782;2022-07-23T02:26:10;12.55;;;7.60;;
45490;SDS011;31237;45.586;13.782;2022-07-23T02:28:35;11.13;;;7.53;;
45490;SDS011;31237;45.586;13.782;2022-07-23T02:31:01;11.60;;;7.95;;
45490;SDS011;31237;45.586;13.782;2022-07-23T02:33:27;10.60;;;7.22;;
45490;SDS011;31237;45.586;13.782;2022-07-23T02:35:53;12.75;;;8.10;;
45490;SDS011;31237;45.586;13.782;2022-07-23T02:38:19;11.30;;;7.35;;
45490;SDS011;31237;45.586;13.782;2022-07-23T02:40:44;11.38;;;8.00;;
45490;SDS011;31237;45.586;13.782;2022-07-23T02:43:10;9.30;;;6.70;;
45490;SDS011;31237;45.586;13.782;2022-07-23T02:45:36;10.80;;;7.78;;
45490;SDS011;31237;45.586;13.782;2022-07-23T02:48:01;11.48;;;8.05;;
45490;SDS011;31237;45.586;13.782;2022-07-23T02:50:27;13.90;;;7.95;;
45490;SDS011;31237;45.586;13.782;2022-07-23T02:52:53;10.38;;;7.72;;
45490;SDS011;31237;45.586;13.782;2022-07-23T02:55:19;11.30;;;7.90;;
45490;SDS011;31237;45.586;13.782;2022-07-23T02:57:45;9.30;;;7.38;;
45490;SDS011;31237;45.586;13.782;2022-07-23T03:00:10;11.55;;;8.10;;
45490;SDS011;31237;45.586;13.782;2022-07-23T03:02:36;11.30;;;7.88;;
45490;SDS011;31237;45.586;13.782;2022-07-23T03:05:02;12.13;;;7.28;;
45490;SDS011;31237;45.586;13.782;2022-07-23T03:07:28;11.35;;;7.45;;
45490;SDS011;31237;45.586;13.782;2022-07-23T03:09:54;10.90;;;7.88;;
45490;SDS011;31237;45.586;13.782;2022-07-23T03:12:20;10.30;;;7.45;;
45490;SDS011;31237;45.586;13.782;2022-07-23T03:14:45;11.18;;;7.68;;
45490;SDS011;31237;45.586;13.782;2022-07-23T03:17:11;11.52;;;8.07;;
45490;SDS011;31237;45.586;13.782;2022-07-23T03:19:37;10.38;;;7.45;;
45490;SDS011;31237;45.586;13.782;2022-07-23T03:22:03;11.68;;;8.38;;
45490;SDS011;31237;45.586;13.782;2022-07-23T03:24:29;12.68;;;7.95;;
45490;SDS011;31237;45.586;13.782;2022-07-23T03:27:13;12.18;;;8.38;;
45490;SDS011;31237;45.586;13.782;2022-07-23T03:29:39;12.25;;;8.27;;
45490;SDS011;31237;45.586;13.782;2022-07-23T03:32:05;13.60;;;8.63;;
45490;SDS011;31237;45.586;13.782;2022-07-23T03:34:31;10.68;;;8.00;;
45490;SDS011;31237;45.586;13.782;2022-07-23T03:36:57;13.30;;;8.43;;
45490;SDS011;31237;45.586;13.782;2022-07-23T03:39:22;14.82;;;8.60;;
45490;SDS011;31237;45.586;13.782;2022-07-23T03:41:48;12.88;;;8.45;;
45490;SDS011;31237;45.586;13.782;2022-07-23T03:44:14;11.68;;;7.72;;
45490;SDS011;31237;45.586;13.782;2022-07-23T03:46:39;11.00;;;8.23;;
45490;SDS011;31237;45.586;13.782;2022-07-23T03:49:05;11.63;;;7.97;;
45490;SDS011;31237;45.586;13.782;2022-07-23T03:51:31;11.95;;;8.43;;
45490;SDS011;31237;45.586;13.782;2022-07-23T03:53:57;11.38;;;7.85;;
45490;SDS011;31237;45.586;13.782;2022-07-23T03:56:23;13.57;;;8.35;;
45490;SDS011;31237;45.586;13.782;2022-07-23T03:58:49;12.05;;;8.32;;
45490;SDS011;31237;45.586;13.782;2022-07-23T04:01:15;11.77;;;8.20;;
45490;SDS011;31237;45.586;13.782;2022-07-23T04:03:40;18.55;;;9.15;;
45490;SDS011;31237;45.586;13.782;2022-07-23T04:06:06;12.50;;;8.13;;
45490;SDS011;31237;45.586;13.782;2022-07-23T04:08:32;11.07;;;8.38;;
45490;SDS011;31237;45.586;13.782;2022-07-23T04:10:58;13.43;;;8.82;;
45490;SDS011;31237;45.586;13.782;2022-07-23T04:13:24;13.43;;;8.30;;
45490;SDS011;31237;45.586;13.782;2022-07-23T04:15:50;10.77;;;8.25;;
45490;SDS011;31237;45.586;13.782;2022-07-23T04:18:16;13.00;;;8.75;;
45490;SDS011;31237;45.586;13.782;2022-07-23T04:20:42;13.13;;;8.60;;
45490;SDS011;31237;45.586;13.782;2022-07-23T04:23:09;15.10;;;8.90;;
45490;SDS011;31237;45.586;13.782;2022-07-23T04:25:35;14.65;;;9.43;;
45490;SDS011;31237;45.586;13.782;2022-07-23T04:28:00;11.65;;;9.13;;
45490;SDS011;31237;45.586;13.782;2022-07-23T04:30:26;13.85;;;9.65;;
45490;SDS011;31237;45.586;13.782;2022-07-23T04:32:52;12.32;;;9.07;;
45490;SDS011;31237;45.586;13.782;2022-07-23T04:35:18;13.23;;;9.10;;
45490;SDS011;31237;45.586;13.782;2022-07-23T04:37:44;15.10;;;9.25;;
45490;SDS011;31237;45.586;13.782;2022-07-23T04:40:10;12.68;;;9.27;;
45490;SDS011;31237;45.586;13.782;2022-07-23T04:42:37;12.07;;;9.18;;
45490;SDS011;31237;45.586;13.782;2022-07-23T04:45:02;14.82;;;9.18;;
45490;SDS011;31237;45.586;13.782;2022-07-23T04:47:29;16.42;;;9.70;;
45490;SDS011;31237;45.586;13.782;2022-07-23T04:49:56;13.52;;;9.63;;
45490;SDS011;31237;45.586;13.782;2022-07-23T04:52:22;14.65;;;9.00;;
45490;SDS011;31237;45.586;13.782;2022-07-23T04:54:48;14.80;;;10.20;;
45490;SDS011;31237;45.586;13.782;2022-07-23T04:57:14;15.82;;;9.63;;
45490;SDS011;31237;45.586;13.782;2022-07-23T04:59:39;13.73;;;10.25;;
45490;SDS011;31237;45.586;13.782;2022-07-23T05:02:05;13.70;;;9.20;;
45490;SDS011;31237;45.586;13.782;2022-07-23T05:04:31;14.02;;;9.98;;
45490;SDS011;31237;45.586;13.782;2022-07-23T05:06:57;14.95;;;9.55;;
45490;SDS011;31237;45.586;13.782;2022-07-23T05:09:23;15.60;;;10.35;;
45490;SDS011;31237;45.586;13.782;2022-07-23T05:11:49;15.02;;;10.18;;
45490;SDS011;31237;45.586;13.782;2022-07-23T05:14:14;16.13;;;10.18;;
45490;SDS011;31237;45.586;13.782;2022-07-23T05:16:40;14.70;;;9.50;;
45490;SDS011;31237;45.586;13.782;2022-07-23T05:19:06;14.43;;;9.60;;
45490;SDS011;31237;45.586;13.782;2022-07-23T05:21:32;15.98;;;9.98;;
45490;SDS011;31237;45.586;13.782;2022-07-23T05:23:58;13.48;;;10.65;;
45490;SDS011;31237;45.586;13.782;2022-07-23T05:26:24;13.27;;;9.80;;
45490;SDS011;31237;45.586;13.782;2022-07-23T05:28:50;16.80;;;9.77;;
45490;SDS011;31237;45.586;13.782;2022-07-23T05:31:16;13.40;;;9.80;;
45490;SDS011;31237;45.586;13.782;2022-07-23T05:33:42;13.02;;;8.80;;
45490;SDS011;31237;45.586;13.782;2022-07-23T05:36:08;10.18;;;6.88;;
45490;SDS011;31237;45.586;13.782;2022-07-23T05:38:33;9.95;;;8.00;;
45490;SDS011;31237;45.586;13.782;2022-07-23T05:41:00;10.77;;;8.02;;
45490;SDS011;31237;45.586;13.782;2022-07-23T05:43:26;12.05;;;8.23;;
45490;SDS011;31237;45.586;13.782;2022-07-23T05:45:53;11.40;;;7.72;;
45490;SDS011;31237;45.586;13.782;2022-07-23T05:48:19;9.45;;;7.38;;
45490;SDS011;31237;45.586;13.782;2022-07-23T05:50:45;11.38;;;8.35;;
45490;SDS011;31237;45.586;13.782;2022-07-23T05:53:11;14.93;;;9.63;;
45490;SDS011;31237;45.586;13.782;2022-07-23T05:55:37;11.82;;;8.70;;
45490;SDS011;31237;45.586;13.782;2022-07-23T05:58:03;12.98;;;7.90;;
45490;SDS011;31237;45.586;13.782;2022-07-23T06:00:28;10.45;;;7.90;;
45490;SDS011;31237;45.586;13.782;2022-07-23T06:02:55;11.05;;;8.15;;
45490;SDS011;31237;45.586;13.782;2022-07-23T06:05:21;13.23;;;8.25;;
45490;SDS011;31237;45.586;13.782;2022-07-23T06:07:47;10.63;;;7.53;;
45490;SDS011;31237;45.586;13.782;2022-07-23T06:10:13;10.18;;;7.68;;
45490;SDS011;31237;45.586;13.782;2022-07-23T06:12:39;11.15;;;8.43;;
45490;SDS011;31237;45.586;13.782;2022-07-23T06:15:04;12.93;;;9.13;;
45490;SDS011;31237;45.586;13.782;2022-07-23T06:17:31;10.23;;;8.00;;
45490;SDS011;31237;45.586;13.782;2022-07-23T06:19:56;9.55;;;7.68;;
45490;SDS011;31237;45.586;13.782;2022-07-23T06:22:22;11.77;;;7.75;;
45490;SDS011;31237;45.586;13.782;2022-07-23T06:24:48;9.27;;;7.50;;
45490;SDS011;31237;45.586;13.782;2022-07-23T06:27:14;11.82;;;8.45;;
45490;SDS011;31237;45.586;13.782;2022-07-23T06:29:40;10.32;;;7.25;;
45490;SDS011;31237;45.586;13.782;2022-07-23T06:32:06;10.32;;;8.30;;
45490;SDS011;31237;45.586;13.782;2022-07-23T06:34:32;14.07;;;8.75;;
45490;SDS011;31237;45.586;13.782;2022-07-23T06:36:58;10.25;;;7.85;;
45490;SDS011;31237;45.586;13.782;2022-07-23T06:39:24;11.07;;;8.75;;
45490;SDS011;31237;45.586;13.782;2022-07-23T06:41:50;11.95;;;9.20;;
45490;SDS011;31237;45.586;13.782;2022-07-23T06:44:16;10.68;;;8.52;;
45490;SDS011;31237;45.586;13.782;2022-07-23T06:46:42;10.48;;;8.90;;
45490;SDS011;31237;45.586;13.782;2022-07-23T06:49:08;10.70;;;8.10;;
45490;SDS011;31237;45.586;13.782;2022-07-23T06:51:34;11.90;;;9.02;;
45490;SDS011;31237;45.586;13.782;2022-07-23T06:54:00;11.45;;;8.45;;
45490;SDS011;31237;45.586;13.782;2022-07-23T06:56:25;13.07;;;7.88;;
45490;SDS011;31237;45.586;13.782;2022-07-23T06:58:51;10.48;;;8.30;;
45490;SDS011;31237;45.586;13.782;2022-07-23T07:01:17;11.73;;;8.85;;
45490;SDS011;31237;45.586;13.782;2022-07-23T07:03:43;14.30;;;8.77;;
45490;SDS011;31237;45.586;13.782;2022-07-23T07:06:08;14.30;;;10.18;;
45490;SDS011;31237;45.586;13.782;2022-07-23T07:08:35;14.90;;;10.60;;
45490;SDS011;31237;45.586;13.782;2022-07-23T07:11:01;12.88;;;9.48;;
45490;SDS011;31237;45.586;13.782;2022-07-23T07:13:27;11.48;;;9.40;;
45490;SDS011;31237;45.586;13.782;2022-07-23T07:15:53;13.63;;;9.77;;
45490;SDS011;31237;45.586;13.782;2022-07-23T07:18:18;16.40;;;10.23;;
45490;SDS011;31237;45.586;13.782;2022-07-23T07:20:44;14.52;;;10.20;;
45490;SDS011;31237;45.586;13.782;2022-07-23T07:23:10;12.48;;;9.20;;
45490;SDS011;31237;45.586;13.782;2022-07-23T07:25:35;12.55;;;9.10;;
45490;SDS011;31237;45.586;13.782;2022-07-23T07:28:01;11.77;;;8.98;;
45490;SDS011;31237;45.586;13.782;2022-07-23T07:30:27;12.00;;;8.88;;
45490;SDS011;31237;45.586;13.782;2022-07-23T07:32:53;13.50;;;8.02;;
45490;SDS011;31237;45.586;13.782;2022-07-23T07:35:18;13.65;;;8.70;;
45490;SDS011;31237;45.586;13.782;2022-07-23T07:37:44;11.75;;;8.00;;
45490;SDS011;31237;45.586;13.782;2022-07-23T07:40:10;11.10;;;7.95;;
45490;SDS011;31237;45.586;13.782;2022-07-23T07:42:43;10.70;;;7.93;;
45490;SDS011;31237;45.586;13.782;2022-07-23T07:45:12;11.20;;;7.55;;
45490;SDS011;31237;45.586;13.782;2022-07-23T07:47:38;15.32;;;9.43;;
45490;SDS011;31237;45.586;13.782;2022-07-23T07:50:04;11.18;;;7.32;;
45490;SDS011;31237;45.586;13.782;2022-07-23T07:52:30;9.43;;;7.68;;
45490;SDS011;31237;45.586;13.782;2022-07-23T07:54:56;12.00;;;8.07;;
45490;SDS011;31237;45.586;13.782;2022-07-23T07:57:21;13.70;;;8.32;;
45490;SDS011;31237;45.586;13.782;2022-07-23T07:59:47;11.45;;;7.35;;
45490;SDS011;31237;45.586;13.782;2022-07-23T08:02:13;11.25;;;8.18;;
45490;SDS011;31237;45.586;13.782;2022-07-23T08:04:38;8.77;;;7.75;;
45490;SDS011;31237;45.586;13.782;2022-07-23T08:07:04;12.93;;;7.65;;
45490;SDS011;31237;45.586;13.782;2022-07-23T08:09:30;12.95;;;7.43;;
45490;SDS011;31237;45.586;13.782;2022-07-23T08:11:55;14.55;;;9.35;;
45490;SDS011;31237;45.586;13.782;2022-07-23T08:14:21;11.38;;;9.13;;
45490;SDS011;31237;45.586;13.782;2022-07-23T08:16:47;13.23;;;9.48;;
45490;SDS011;31237;45.586;13.782;2022-07-23T08:19:12;14.45;;;9.35;;
45490;SDS011;31237;45.586;13.782;2022-07-23T08:21:38;11.25;;;8.15;;
45490;SDS011;31237;45.586;13.782;2022-07-23T08:24:04;11.07;;;8.02;;
45490;SDS011;31237;45.586;13.782;2022-07-23T08:26:29;13.00;;;8.82;;
45490;SDS011;31237;45.586;13.782;2022-07-23T08:28:55;12.18;;;8.32;;
45490;SDS011;31237;45.586;13.782;2022-07-23T08:31:21;12.40;;;9.30;;
45490;SDS011;31237;45.586;13.782;2022-07-23T08:33:47;10.68;;;9.00;;
45490;SDS011;31237;45.586;13.782;2022-07-23T08:36:12;10.55;;;8.07;;
45490;SDS011;31237;45.586;13.782;2022-07-23T08:38:38;10.60;;;8.43;;
45490;SDS011;31237;45.586;13.782;2022-07-23T08:41:04;10.73;;;8.35;;
45490;SDS011;31237;45.586;13.782;2022-07-23T08:43:33;10.63;;;8.27;;
45490;SDS011;31237;45.586;13.782;2022-07-23T08:46:01;12.15;;;8.63;;
45490;SDS011;31237;45.586;13.782;2022-07-23T08:48:30;10.23;;;8.90;;
45490;SDS011;31237;45.586;13.782;2022-07-23T08:51:01;10.18;;;8.38;;
45490;SDS011;31237;45.586;13.782;2022-07-23T08:53:29;11.68;;;9.02;;
45490;SDS011;31237;45.586;13.782;2022-07-23T08:55:57;10.55;;;8.23;;
45490;SDS011;31237;45.586;13.782;2022-07-23T08:58:26;11.13;;;8.05;;
45490;SDS011;31237;45.586;13.782;2022-07-23T09:00:52;11.82;;;9.63;;
45490;SDS011;31237;45.586;13.782;2022-07-23T09:03:19;10.43;;;8.80;;
45490;SDS011;31237;45.586;13.782;2022-07-23T09:05:47;11.25;;;8.48;;
45490;SDS011;31237;45.586;13.782;2022-07-23T09:08:16;10.70;;;7.80;;
45490;SDS011;31237;45.586;13.782;2022-07-23T09:10:43;11.30;;;7.95;;
45490;SDS011;31237;45.586;13.782;2022-07-23T09:16:05;10.95;;;8.40;;
45490;SDS011;31237;45.586;13.782;2022-07-23T09:18:38;9.68;;;8.23;;
45490;SDS011;31237;45.586;13.782;2022-07-23T09:26:17;9.27;;;7.45;;
45490;SDS011;31237;45.586;13.782;2022-07-23T09:31:43;9.13;;;7.60;;
45490;SDS011;31237;45.586;13.782;2022-07-23T09:36:48;11.13;;;7.60;;
45490;SDS011;31237;45.586;13.782;2022-07-23T09:39:16;8.70;;;7.25;;
45490;SDS011;31237;45.586;13.782;2022-07-23T09:41:58;10.20;;;8.25;;
45490;SDS011;31237;45.586;13.782;2022-07-23T09:44:45;9.05;;;7.07;;
45490;SDS011;31237;45.586;13.782;2022-07-23T09:47:15;9.27;;;7.78;;
45490;SDS011;31237;45.586;13.782;2022-07-23T09:52:34;9.73;;;6.65;;
45490;SDS011;31237;45.586;13.782;2022-07-23T09:55:07;8.65;;;6.53;;
45490;SDS011;31237;45.586;13.782;2022-07-23T09:57:34;8.10;;;6.80;;
45490;SDS011;31237;45.586;13.782;2022-07-23T10:00:00;8.13;;;6.72;;
45490;SDS011;31237;45.586;13.782;2022-07-23T10:02:29;8.20;;;6.07;;
45490;SDS011;31237;45.586;13.782;2022-07-23T10:04:57;7.55;;;6.28;;
45490;SDS011;31237;45.586;13.782;2022-07-23T10:07:25;8.43;;;6.32;;
45490;SDS011;31237;45.586;13.782;2022-07-23T10:09:52;7.53;;;5.63;;
45490;SDS011;31237;45.586;13.782;2022-07-23T10:12:19;7.18;;;5.45;;
45490;SDS011;31237;45.586;13.782;2022-07-23T10:14:50;8.45;;;6.15;;
45490;SDS011;31237;45.586;13.782;2022-07-23T10:17:17;6.38;;;5.43;;
45490;SDS011;31237;45.586;13.782;2022-07-23T10:19:43;8.57;;;5.60;;
45490;SDS011;31237;45.586;13.782;2022-07-23T10:22:10;5.90;;;5.00;;
45490;SDS011;31237;45.586;13.782;2022-07-23T10:30:06;7.28;;;5.07;;
45490;SDS011;31237;45.586;13.782;2022-07-23T10:32:38;6.03;;;4.47;;
45490;SDS011;31237;45.586;13.782;2022-07-23T10:35:37;7.93;;;4.90;;
45490;SDS011;31237;45.586;13.782;2022-07-23T10:38:10;5.70;;;4.63;;
45490;SDS011;31237;45.586;13.782;2022-07-23T10:40:57;5.82;;;4.57;;
45490;SDS011;31237;45.586;13.782;2022-07-23T10:43:24;5.00;;;3.90;;
45490;SDS011;31237;45.586;13.782;2022-07-23T10:45:51;6.47;;;4.90;;
45490;SDS011;31237;45.586;13.782;2022-07-23T10:48:18;6.82;;;5.03;;
45490;SDS011;31237;45.586;13.782;2022-07-23T10:57:03;6.70;;;4.65;;
45490;SDS011;31237;45.586;13.782;2022-07-23T10:59:21;6.13;;;4.60;;
45490;SDS011;31237;45.586;13.782;2022-07-23T11:01:47;6.45;;;5.00;;
45490;SDS011;31237;45.586;13.782;2022-07-23T11:04:14;7.95;;;4.60;;
45490;SDS011;31237;45.586;13.782;2022-07-23T11:15:00;8.85;;;6.57;;
45490;SDS011;31237;45.586;13.782;2022-07-23T11:17:37;8.30;;;5.93;;
45490;SDS011;31237;45.586;13.782;2022-07-23T11:20:23;6.40;;;5.07;;
45490;SDS011;31237;45.586;13.782;2022-07-23T11:22:56;6.63;;;5.03;;
45490;SDS011;31237;45.586;13.782;2022-07-23T11:27:50;4.50;;;3.35;;
45490;SDS011;31237;45.586;13.782;2022-07-23T11:32:52;4.13;;;3.17;;
45490;SDS011;31237;45.586;13.782;2022-07-23T11:35:21;7.38;;;5.28;;
45490;SDS011;31237;45.586;13.782;2022-07-23T11:37:50;4.55;;;3.50;;
45490;SDS011;31237;45.586;13.782;2022-07-23T11:40:23;4.03;;;2.85;;
45490;SDS011;31237;45.586;13.782;2022-07-23T11:43:01;4.80;;;3.25;;
45490;SDS011;31237;45.586;13.782;2022-07-23T11:45:31;4.45;;;3.42;;
45490;SDS011;31237;45.586;13.782;2022-07-23T11:48:05;4.57;;;3.17;;
45490;SDS011;31237;45.586;13.782;2022-07-23T11:50:34;6.47;;;3.08;;
45490;SDS011;31237;45.586;13.782;2022-07-23T11:53:01;4.10;;;2.97;;
45490;SDS011;31237;45.586;13.782;2022-07-23T11:55:27;4.10;;;3.03;;
45490;SDS011;31237;45.586;13.782;2022-07-23T11:57:54;4.65;;;3.45;;
45490;SDS011;31237;45.586;13.782;2022-07-23T12:00:24;5.35;;;3.83;;
45490;SDS011;31237;45.586;13.782;2022-07-23T12:02:53;4.97;;;3.65;;
45490;SDS011;31237;45.586;13.782;2022-07-23T12:05:30;4.47;;;3.58;;
45490;SDS011;31237;45.586;13.782;2022-07-23T12:07:58;5.10;;;3.60;;
45490;SDS011;31237;45.586;13.782;2022-07-23T12:12:53;5.50;;;3.45;;
45490;SDS011;31237;45.586;13.782;2022-07-23T12:15:29;4.97;;;3.95;;
45490;SDS011;31237;45.586;13.782;2022-07-23T12:18:03;4.60;;;3.58;;
45490;SDS011;31237;45.586;13.782;2022-07-23T12:20:31;4.70;;;3.40;;
45490;SDS011;31237;45.586;13.782;2022-07-23T12:23:02;5.53;;;3.53;;
45490;SDS011;31237;45.586;13.782;2022-07-23T12:25:32;4.97;;;3.30;;
45490;SDS011;31237;45.586;13.782;2022-07-23T12:28:13;6.03;;;3.63;;
45490;SDS011;31237;45.586;13.782;2022-07-23T12:30:47;4.90;;;3.25;;
45490;SDS011;31237;45.586;13.782;2022-07-23T12:33:18;4.68;;;3.10;;
45490;SDS011;31237;45.586;13.782;2022-07-23T12:35:52;4.47;;;2.90;;
45490;SDS011;31237;45.586;13.782;2022-07-23T12:38:21;4.75;;;3.28;;
45490;SDS011;31237;45.586;13.782;2022-07-23T12:40:51;3.88;;;2.97;;
45490;SDS011;31237;45.586;13.782;2022-07-23T12:46:09;5.38;;;3.40;;
45490;SDS011;31237;45.586;13.782;2022-07-23T12:53:49;4.40;;;3.13;;
45490;SDS011;31237;45.586;13.782;2022-07-23T12:56:26;5.22;;;3.42;;
45490;SDS011;31237;45.586;13.782;2022-07-23T12:58:58;7.15;;;3.42;;
45490;SDS011;31237;45.586;13.782;2022-07-23T13:01:42;4.63;;;3.40;;
45490;SDS011;31237;45.586;13.782;2022-07-23T13:04:21;4.60;;;3.50;;
45490;SDS011;31237;45.586;13.782;2022-07-23T13:06:55;5.28;;;3.25;;
45490;SDS011;31237;45.586;13.782;2022-07-23T13:09:24;3.47;;;2.67;;
45490;SDS011;31237;45.586;13.782;2022-07-23T13:11:52;6.35;;;2.95;;
45490;SDS011;31237;45.586;13.782;2022-07-23T13:14:20;4.22;;;2.83;;
45490;SDS011;31237;45.586;13.782;2022-07-23T13:16:48;3.90;;;2.50;;
45490;SDS011;31237;45.586;13.782;2022-07-23T13:19:16;4.28;;;2.80;;
45490;SDS011;31237;45.586;13.782;2022-07-23T13:21:42;4.25;;;2.80;;
45490;SDS011;31237;45.586;13.782;2022-07-23T13:24:09;4.47;;;2.40;;
45490;SDS011;31237;45.586;13.782;2022-07-23T13:26:36;3.83;;;2.55;;
45490;SDS011;31237;45.586;13.782;2022-07-23T13:29:03;3.70;;;2.30;;
45490;SDS011;31237;45.586;13.782;2022-07-23T13:31:30;3.83;;;2.30;;
45490;SDS011;31237;45.586;13.782;2022-07-23T13:33:56;4.90;;;2.17;;
45490;SDS011;31237;45.586;13.782;2022-07-23T13:36:22;4.82;;;2.55;;
45490;SDS011;31237;45.586;13.782;2022-07-23T13:38:48;6.80;;;2.10;;
45490;SDS011;31237;45.586;13.782;2022-07-23T13:41:15;3.17;;;2.25;;
45490;SDS011;31237;45.586;13.782;2022-07-23T13:43:42;4.50;;;2.40;;
45490;SDS011;31237;45.586;13.782;2022-07-23T13:46:08;3.50;;;2.22;;
45490;SDS011;31237;45.586;13.782;2022-07-23T13:48:34;3.45;;;1.98;;
45490;SDS011;31237;45.586;13.782;2022-07-23T13:51:00;4.47;;;2.10;;
45490;SDS011;31237;45.586;13.782;2022-07-23T13:53:29;3.47;;;2.35;;
45490;SDS011;31237;45.586;13.782;2022-07-23T13:55:55;3.33;;;2.00;;
45490;SDS011;31237;45.586;13.782;2022-07-23T13:58:22;3.40;;;2.10;;
45490;SDS011;31237;45.586;13.782;2022-07-23T14:00:49;3.58;;;2.20;;
45490;SDS011;31237;45.586;13.782;2022-07-23T14:03:17;3.78;;;2.08;;
45490;SDS011;31237;45.586;13.782;2022-07-23T14:05:43;3.45;;;1.70;;
45490;SDS011;31237;45.586;13.782;2022-07-23T14:08:09;3.28;;;1.70;;
45490;SDS011;31237;45.586;13.782;2022-07-23T14:10:36;6.30;;;2.08;;
45490;SDS011;31237;45.586;13.782;2022-07-23T14:13:02;4.05;;;1.88;;
45490;SDS011;31237;45.586;13.782;2022-07-23T14:15:28;3.35;;;2.10;;
45490;SDS011;31237;45.586;13.782;2022-07-23T14:17:56;3.08;;;2.08;;
45490;SDS011;31237;45.586;13.782;2022-07-23T14:20:22;3.35;;;1.77;;
45490;SDS011;31237;45.586;13.782;2022-07-23T14:22:48;3.22;;;2.20;;
45490;SDS011;31237;45.586;13.782;2022-07-23T14:25:14;4.47;;;2.60;;
45490;SDS011;31237;45.586;13.782;2022-07-23T14:27:41;4.72;;;2.80;;
45490;SDS011;31237;45.586;13.782;2022-07-23T14:30:07;4.18;;;2.60;;
45490;SDS011;31237;45.586;13.782;2022-07-23T14:32:34;3.97;;;2.83;;
45490;SDS011;31237;45.586;13.782;2022-07-23T14:35:01;3.55;;;2.30;;
45490;SDS011;31237;45.586;13.782;2022-07-23T14:37:27;4.97;;;2.53;;
45490;SDS011;31237;45.586;13.782;2022-07-23T14:39:53;9.38;;;2.63;;
45490;SDS011;31237;45.586;13.782;2022-07-23T14:42:19;4.05;;;2.72;;
45490;SDS011;31237;45.586;13.782;2022-07-23T14:44:45;4.63;;;2.40;;
45490;SDS011;31237;45.586;13.782;2022-07-23T14:47:11;3.90;;;2.70;;
45490;SDS011;31237;45.586;13.782;2022-07-23T14:49:39;4.45;;;2.58;;
45490;SDS011;31237;45.586;13.782;2022-07-23T14:52:05;3.97;;;2.75;;
45490;SDS011;31237;45.586;13.782;2022-07-23T14:54:32;4.10;;;2.80;;
45490;SDS011;31237;45.586;13.782;2022-07-23T14:56:59;3.95;;;2.60;;
45490;SDS011;31237;45.586;13.782;2022-07-23T14:59:26;3.90;;;2.78;;
45490;SDS011;31237;45.586;13.782;2022-07-23T15:01:53;4.45;;;2.70;;
45490;SDS011;31237;45.586;13.782;2022-07-23T15:04:20;4.20;;;2.95;;
45490;SDS011;31237;45.586;13.782;2022-07-23T15:06:46;4.30;;;3.10;;
45490;SDS011;31237;45.586;13.782;2022-07-23T15:09:13;4.22;;;2.83;;
45490;SDS011;31237;45.586;13.782;2022-07-23T15:11:39;3.47;;;2.72;;
45490;SDS011;31237;45.586;13.782;2022-07-23T15:14:06;4.60;;;3.08;;
45490;SDS011;31237;45.586;13.782;2022-07-23T15:16:32;5.93;;;3.30;;
45490;SDS011;31237;45.586;13.782;2022-07-23T15:18:59;6.18;;;3.42;;
45490;SDS011;31237;45.586;13.782;2022-07-23T15:21:27;5.80;;;3.30;;